LEAB/ABC METAR and TAF weather

Enter ICAO airport designator
Station Type Date Time Source
LEAB METAR 2019/12/05 23:00 UTC NOAA

LEAB 052300Z 09004KT 9999 FEW013 SCT017 07/06 Q1021 NOSIG


Station Type Date Time Source
LEAB Decoded METAR 2019/12/05 23:00 UTC NOAA

Albacete / Los Llanos, Spain (LEAB) 38-57N 001-51W 704M
Dec 05, 2019 - 06:00 PM EST / 2019.12.05 2300 UTC
Wind: from the E (090 degrees) at 5 MPH (4 KT):0
Visibility: greater than 7 mile(s):0
Sky conditions: partly cloudy
Temperature: 44 F (7 C)
Dew Point: 42 F (6 C)
Relative Humidity: 93%
Pressure (altimeter): 30.15 in. Hg (1021 hPa)
ob: LEAB 052300Z 09004KT 9999 FEW013 SCT017 07/06 Q1021 NOSIG
cycle: 23

Station Type Date Time Source
LEAB TAF 2018/04/26 18:51 UTC NOAA

TAF
AMD LEAB 261747Z 2618/2706 16012KT 9999 FEW040
BECMG 2704/2706 27015KT
TEMPO 2704/2706 BKN014

Example: see airport list